createdAt,value
2018-09-21T00:00:31.512Z,22.50
2018-09-21T00:04:58.017Z,22.40
2018-09-21T00:07:03.444Z,22.40
2018-09-21T00:09:10.296Z,22.40
2018-09-21T00:11:14.395Z,22.30
2018-09-21T00:13:18.404Z,22.30
2018-09-21T00:15:24.712Z,22.30
2018-09-21T00:17:28.656Z,22.40
2018-09-21T00:19:33.521Z,22.40
2018-09-21T00:21:37.921Z,22.30
2018-09-21T00:23:41.830Z,22.30
2018-09-21T00:25:45.865Z,22.30
2018-09-21T00:27:50.261Z,22.30
2018-09-21T00:29:54.172Z,22.30
2018-09-21T00:31:58.156Z,22.30
2018-09-21T00:34:02.817Z,22.30
2018-09-21T00:36:06.758Z,22.30
2018-09-21T00:38:11.263Z,22.30
2018-09-21T00:40:15.348Z,22.30
2018-09-21T00:42:19.309Z,22.30
2018-09-21T00:44:23.212Z,22.40
2018-09-21T00:46:34.049Z,22.40
2018-09-21T00:48:38.984Z,22.40
2018-09-21T00:50:46.041Z,22.40
2018-09-21T00:52:50.059Z,22.30
2018-09-21T00:54:54.611Z,22.40
2018-09-21T00:56:59.661Z,22.40
2018-09-21T00:59:04.092Z,22.30
2018-09-21T01:01:08.096Z,22.30
2018-09-21T01:03:12.191Z,22.30
2018-09-21T01:05:16.197Z,22.30
2018-09-21T01:07:21.444Z,22.30
2018-09-21T01:09:25.544Z,22.20
2018-09-21T01:11:29.915Z,22.10
2018-09-21T01:13:33.888Z,22.20
2018-09-21T01:15:38.045Z,22.20
2018-09-21T01:17:42.560Z,22.20
2018-09-21T01:19:48.070Z,22.20
2018-09-21T01:21:56.590Z,22.20
2018-09-21T01:24:01.378Z,22.10
2018-09-21T01:26:05.441Z,22.00
2018-09-21T01:28:09.764Z,22.00
2018-09-21T01:30:14.792Z,21.90
2018-09-21T01:32:18.793Z,21.90
2018-09-21T01:34:24.452Z,21.80
2018-09-21T01:36:28.526Z,21.80
2018-09-21T01:38:34.104Z,21.70
2018-09-21T01:40:41.024Z,21.70
2018-09-21T01:42:44.986Z,21.80
2018-09-21T01:44:50.523Z,21.80
2018-09-21T01:46:55.090Z,21.70
2018-09-21T01:48:59.093Z,21.70
2018-09-21T01:51:03.040Z,21.70
2018-09-21T01:53:07.660Z,21.70
2018-09-21T01:55:11.636Z,21.70
2018-09-21T01:57:15.716Z,21.70
2018-09-21T01:59:20.102Z,21.60
2018-09-21T02:01:24.107Z,21.60
2018-09-21T02:03:28.165Z,21.70
2018-09-21T02:05:32.224Z,21.70
2018-09-21T02:07:36.310Z,21.60
2018-09-21T02:09:41.065Z,21.60
2018-09-21T02:11:45.541Z,21.60
2018-09-21T02:13:49.579Z,21.60
2018-09-21T02:15:54.259Z,21.60
2018-09-21T02:17:58.543Z,21.50
2018-09-21T02:20:02.492Z,21.50
2018-09-21T02:22:06.476Z,21.40
2018-09-21T02:24:10.801Z,21.50
2018-09-21T02:26:14.796Z,21.40
2018-09-21T02:28:18.744Z,21.40
2018-09-21T02:30:24.530Z,21.30
2018-09-21T02:32:28.578Z,21.30
2018-09-21T02:34:32.605Z,21.20
2018-09-21T02:36:37.116Z,21.20
2018-09-21T02:38:41.062Z,20.90
2018-09-21T02:40:45.029Z,21.00
2018-09-21T02:42:49.336Z,21.00
2018-09-21T02:44:53.278Z,21.00
2018-09-21T02:46:57.308Z,21.00
2018-09-21T02:49:01.659Z,20.90
2018-09-21T02:51:05.723Z,20.80
2018-09-21T02:53:09.865Z,20.60
2018-09-21T02:55:15.017Z,20.50
2018-09-21T02:57:19.153Z,20.70
2018-09-21T02:59:23.298Z,20.80
2018-09-21T03:01:28.217Z,20.90
2018-09-21T03:03:32.283Z,20.90
2018-09-21T03:05:36.416Z,20.90
2018-09-21T03:07:40.810Z,20.90
2018-09-21T03:09:44.880Z,20.80
2018-09-21T03:11:48.924Z,20.80
2018-09-21T03:13:53.037Z,20.80
2018-09-21T03:15:57.144Z,20.80
2018-09-21T03:18:02.062Z,20.80
2018-09-21T03:20:06.836Z,20.80
2018-09-21T03:22:11.020Z,20.70
2018-09-21T03:24:15.037Z,20.60
2018-09-21T03:26:19.340Z,20.70
2018-09-21T03:28:24.052Z,20.70
2018-09-21T03:30:28.104Z,20.60
2018-09-21T03:32:32.558Z,20.70
2018-09-21T03:34:38.196Z,20.60
2018-09-21T03:36:42.279Z,20.60
2018-09-21T03:38:46.678Z,20.70
2018-09-21T03:40:50.763Z,20.70
2018-09-21T03:42:54.831Z,20.70
2018-09-21T03:44:59.525Z,20.70
2018-09-21T03:47:03.483Z,20.70
2018-09-21T03:49:08.317Z,20.70
2018-09-21T03:51:13.375Z,20.70
2018-09-21T03:53:17.391Z,20.70
2018-09-21T03:55:21.510Z,20.70
2018-09-21T03:57:25.840Z,20.60
2018-09-21T03:59:29.840Z,20.60
2018-09-21T04:01:33.894Z,20.70
2018-09-21T04:03:45.383Z,20.70
2018-09-21T04:05:51.278Z,20.70
2018-09-21T04:07:55.338Z,20.60
2018-09-21T04:10:00.215Z,20.60
2018-09-21T04:12:06.312Z,20.50
2018-09-21T04:14:11.496Z,20.50
2018-09-21T04:16:16.569Z,20.50
2018-09-21T04:18:20.840Z,20.50
2018-09-21T04:20:24.893Z,20.40
2018-09-21T04:22:29.696Z,20.40
2018-09-21T04:24:34.681Z,20.40
2018-09-21T04:26:40.185Z,20.40
2018-09-21T04:28:53.479Z,20.40
2018-09-21T04:30:59.934Z,20.40
2018-09-21T04:33:07.660Z,20.40
2018-09-21T04:35:14.207Z,20.40
2018-09-21T04:37:23.826Z,20.40
2018-09-21T04:39:27.853Z,20.50
2018-09-21T04:41:32.380Z,20.50
2018-09-21T04:43:36.441Z,20.50
2018-09-21T04:45:41.066Z,20.50
2018-09-21T04:47:45.273Z,20.40
2018-09-21T04:49:49.297Z,20.40
2018-09-21T04:51:54.343Z,20.40
2018-09-21T04:53:59.784Z,20.40
2018-09-21T04:56:03.942Z,20.30
2018-09-21T05:00:36.841Z,20.20
2018-09-21T05:02:41.074Z,20.20
2018-09-21T05:04:45.078Z,20.30
2018-09-21T05:06:49.544Z,20.30
2018-09-21T05:08:53.675Z,20.30
2018-09-21T05:10:58.187Z,20.40
2018-09-21T05:13:03.978Z,20.40
2018-09-21T05:15:08.059Z,20.40
2018-09-21T05:17:12.285Z,20.40
2018-09-21T05:19:16.392Z,20.40
2018-09-21T05:21:21.014Z,20.40
2018-09-21T05:23:33.773Z,20.40
2018-09-21T05:25:40.014Z,20.50
2018-09-21T05:27:44.079Z,20.40
2018-09-21T05:29:49.644Z,20.50
2018-09-21T05:31:54.685Z,20.50
2018-09-21T05:33:58.696Z,20.50
2018-09-21T05:36:03.580Z,20.50
2018-09-21T05:38:07.833Z,20.40
2018-09-21T05:40:14.900Z,20.40
2018-09-21T05:42:20.716Z,20.50
2018-09-21T05:44:24.653Z,20.50
2018-09-21T05:46:29.433Z,20.50
2018-09-21T05:48:33.389Z,20.40
2018-09-21T05:50:39.514Z,20.40
2018-09-21T05:52:45.256Z,20.40
2018-09-21T05:54:50.484Z,20.50
2018-09-21T05:56:55.949Z,20.70
2018-09-21T05:58:59.909Z,20.80
2018-09-21T06:01:05.873Z,20.80
2018-09-21T06:03:10.470Z,20.90
2018-09-21T06:05:14.771Z,21.00
2018-09-21T06:07:19.367Z,21.10
2018-09-21T06:09:23.664Z,21.20
2018-09-21T06:11:27.844Z,21.30
2018-09-21T06:13:34.963Z,21.40
2018-09-21T06:15:39.570Z,21.50
2018-09-21T06:17:44.333Z,21.50
2018-09-21T06:19:48.498Z,21.60
2018-09-21T06:21:52.780Z,21.80
2018-09-21T06:23:57.326Z,21.80
2018-09-21T06:26:01.792Z,22.00
2018-09-21T06:28:08.493Z,22.10
2018-09-21T06:30:16.353Z,22.20
2018-09-21T06:32:21.039Z,22.20
2018-09-21T06:34:25.424Z,22.40
2018-09-21T06:36:30.357Z,22.50
2018-09-21T06:38:35.121Z,22.50
2018-09-21T06:40:40.386Z,22.70
2018-09-21T06:42:44.356Z,22.90
2018-09-21T06:44:48.329Z,22.90
2018-09-21T06:46:54.020Z,23.00
2018-09-21T06:48:58.282Z,23.00
2018-09-21T06:51:02.451Z,22.90
2018-09-21T06:53:07.030Z,22.80
2018-09-21T06:55:11.526Z,22.80
2018-09-21T06:57:17.590Z,22.80
2018-09-21T06:59:21.682Z,22.70
2018-09-21T07:01:26.829Z,22.70
2018-09-21T07:03:30.797Z,22.80
2018-09-21T07:05:37.292Z,22.70
2018-09-21T07:07:41.492Z,22.80
2018-09-21T07:09:47.968Z,22.80
2018-09-21T07:11:53.311Z,22.70
2018-09-21T07:13:58.268Z,22.80
2018-09-21T07:16:02.329Z,22.80
2018-09-21T07:18:08.892Z,22.80
2018-09-21T07:20:16.060Z,22.70
2018-09-21T07:22:21.424Z,22.80
2018-09-21T07:24:26.030Z,22.70
2018-09-21T07:26:30.770Z,22.70
2018-09-21T07:28:35.011Z,22.60
2018-09-21T07:30:42.946Z,22.60
2018-09-21T07:32:50.001Z,22.70
2018-09-21T07:34:56.381Z,22.60
2018-09-21T07:37:02.699Z,22.60
2018-09-21T07:39:08.700Z,22.60
2018-09-21T07:41:12.938Z,22.60
2018-09-21T07:43:17.458Z,22.60
2018-09-21T07:45:25.102Z,22.50
2018-09-21T07:47:29.222Z,22.60
2018-09-21T07:49:34.480Z,22.70
2018-09-21T07:51:38.609Z,22.80
2018-09-21T07:53:42.915Z,22.80
2018-09-21T07:55:47.808Z,22.90
2018-09-21T07:57:51.836Z,23.00
2018-09-21T07:59:55.783Z,23.00
2018-09-21T08:02:00.780Z,23.10
2018-09-21T08:04:04.828Z,23.10
2018-09-21T08:06:09.881Z,23.20
2018-09-21T08:08:14.845Z,23.30
2018-09-21T08:10:18.826Z,23.30
2018-09-21T08:12:24.433Z,23.40
2018-09-21T08:14:28.526Z,23.50
2018-09-21T08:16:34.581Z,23.60
2018-09-21T08:18:39.232Z,23.60
2018-09-21T08:20:45.991Z,23.70
2018-09-21T08:22:50.958Z,23.80
2018-09-21T08:24:55.420Z,23.80
2018-09-21T08:27:01.595Z,23.90
2018-09-21T08:29:06.795Z,24.10
2018-09-21T08:31:11.791Z,24.10
2018-09-21T08:33:17.783Z,24.10
2018-09-21T08:35:23.462Z,24.10
2018-09-21T08:37:30.757Z,24.00
2018-09-21T08:39:35.473Z,24.00
2018-09-21T08:41:41.978Z,24.10
2018-09-21T08:43:46.253Z,24.10
2018-09-21T08:45:50.809Z,24.20
2018-09-21T08:47:55.701Z,24.30
2018-09-21T08:49:59.872Z,24.40
2018-09-21T08:52:05.122Z,24.40
2018-09-21T08:54:10.422Z,24.40
2018-09-21T08:56:14.445Z,24.40
2018-09-21T08:58:18.732Z,24.50
2018-09-21T09:00:25.736Z,24.50
2018-09-21T09:02:31.643Z,24.60
2018-09-21T09:04:37.042Z,24.70
2018-09-21T09:06:43.167Z,24.80
2018-09-21T09:08:47.278Z,24.90
2018-09-21T09:10:51.506Z,25.00
2018-09-21T09:12:56.245Z,25.00
2018-09-21T09:15:04.925Z,25.10
2018-09-21T09:17:09.296Z,25.20
2018-09-21T09:19:14.416Z,25.30
2018-09-21T09:21:19.384Z,25.30
2018-09-21T09:23:25.457Z,25.30
2018-09-21T09:25:31.806Z,25.20
2018-09-21T09:27:37.200Z,25.20
2018-09-21T09:29:43.382Z,25.30
2018-09-21T09:31:49.319Z,25.30
2018-09-21T09:33:53.999Z,25.30
2018-09-21T09:35:57.957Z,25.40
2018-09-21T09:38:01.889Z,25.50
2018-09-21T09:40:06.650Z,25.40
2018-09-21T09:42:11.284Z,25.40
2018-09-21T09:44:16.084Z,25.50
2018-09-21T09:46:20.341Z,25.60
2018-09-21T09:48:24.677Z,25.60
2018-09-21T09:50:32.613Z,25.60
2018-09-21T09:52:38.322Z,25.70
2018-09-21T09:54:42.610Z,25.70
2018-09-21T09:56:47.590Z,25.80
2018-09-21T09:58:51.576Z,25.80
2018-09-21T10:00:58.578Z,25.90
2018-09-21T10:03:03.580Z,26.00
2018-09-21T10:05:08.104Z,25.90
2018-09-21T10:07:22.524Z,26.00
2018-09-21T10:09:27.277Z,26.10
2018-09-21T10:11:31.481Z,26.10
2018-09-21T10:13:37.517Z,26.00
2018-09-21T10:15:44.255Z,26.10
2018-09-21T10:17:48.422Z,26.30
2018-09-21T10:19:54.083Z,26.50
2018-09-21T10:21:59.267Z,26.40
2018-09-21T10:24:03.836Z,26.50
2018-09-21T10:26:08.890Z,26.50
2018-09-21T10:28:13.363Z,26.50
2018-09-21T10:30:17.382Z,26.70
2018-09-21T10:32:21.704Z,26.70
2018-09-21T10:34:34.109Z,26.80
2018-09-21T10:36:39.401Z,26.80
2018-09-21T10:38:48.826Z,26.60
2018-09-21T10:40:53.911Z,26.60
2018-09-21T10:42:57.996Z,26.60
2018-09-21T10:45:03.318Z,26.60
2018-09-21T10:47:07.574Z,26.50
2018-09-21T10:49:11.736Z,26.50
2018-09-21T10:51:15.774Z,26.50
2018-09-21T10:53:20.759Z,26.50
2018-09-21T10:55:25.686Z,26.50
2018-09-21T10:57:31.561Z,26.50
2018-09-21T10:59:36.323Z,26.50
2018-09-21T11:01:40.319Z,26.50
2018-09-21T11:03:45.837Z,26.50
2018-09-21T11:05:49.847Z,26.60
2018-09-21T11:07:53.875Z,26.70
2018-09-21T11:09:58.434Z,26.80
2018-09-21T11:12:03.309Z,26.90
2018-09-21T11:14:08.930Z,27.00
2018-09-21T11:16:14.152Z,27.00
2018-09-21T11:18:18.298Z,27.00
2018-09-21T11:20:22.373Z,27.00
2018-09-21T11:22:27.460Z,27.00
2018-09-21T11:24:31.792Z,27.00
2018-09-21T11:26:35.896Z,27.00
2018-09-21T11:28:44.042Z,27.00
2018-09-21T11:30:49.347Z,26.90
2018-09-21T11:32:54.245Z,26.90
2018-09-21T11:34:59.466Z,26.90
2018-09-21T11:37:03.405Z,26.80
2018-09-21T11:39:09.165Z,26.70
2018-09-21T11:41:13.439Z,26.70
2018-09-21T11:43:21.989Z,26.80
2018-09-21T11:45:26.176Z,26.80
2018-09-21T11:47:30.684Z,26.80
2018-09-21T11:49:34.667Z,26.80
2018-09-21T11:51:39.249Z,26.70
2018-09-21T11:53:45.427Z,26.60
2018-09-21T11:55:49.521Z,26.60
2018-09-21T11:57:55.334Z,26.50
2018-09-21T12:00:00.430Z,26.60
2018-09-21T12:02:06.149Z,26.60
2018-09-21T12:04:10.881Z,26.50
2018-09-21T12:06:16.842Z,26.50
2018-09-21T12:08:22.299Z,26.40
2018-09-21T12:10:26.421Z,26.30
2018-09-21T12:12:31.741Z,26.10
2018-09-21T12:14:38.618Z,26.20
2018-09-21T12:16:46.543Z,26.30
2018-09-21T12:18:51.825Z,26.30
2018-09-21T12:21:00.068Z,26.30
2018-09-21T12:23:05.429Z,26.30
2018-09-21T12:25:09.906Z,26.30
2018-09-21T12:27:15.248Z,26.30
2018-09-21T12:29:20.730Z,26.30
2018-09-21T12:31:25.144Z,26.30
2018-09-21T12:33:33.251Z,25.90
2018-09-21T12:35:38.504Z,25.30
2018-09-21T12:37:45.834Z,24.70
2018-09-21T12:42:01.901Z,24.30
2018-09-21T12:44:07.625Z,23.60
2018-09-21T12:46:20.008Z,23.30
2018-09-21T12:48:25.352Z,23.10
2018-09-21T12:50:30.619Z,22.80
2018-09-21T12:52:36.376Z,22.70
2018-09-21T12:54:42.483Z,22.70
2018-09-21T12:56:46.757Z,22.60
2018-09-21T12:58:51.772Z,22.60
2018-09-21T13:00:56.441Z,22.50
2018-09-21T13:03:02.463Z,22.20
2018-09-21T13:05:09.767Z,21.70
2018-09-21T13:07:13.765Z,21.20
2018-09-21T13:09:20.140Z,20.30
2018-09-21T13:11:24.455Z,19.30
2018-09-21T13:13:30.744Z,18.40
2018-09-21T13:15:34.712Z,18.10
2018-09-21T13:17:39.411Z,17.80
2018-09-21T13:19:47.013Z,17.50
2018-09-21T13:21:52.132Z,17.40
2018-09-21T13:23:56.114Z,17.30
2018-09-21T13:26:00.236Z,17.00
2018-09-21T13:28:04.579Z,17.00
2018-09-21T13:30:16.606Z,17.00
2018-09-21T13:32:24.346Z,17.00
2018-09-21T13:34:28.777Z,16.80
2018-09-21T13:36:33.907Z,16.60
2018-09-21T13:38:37.958Z,16.50
2018-09-21T13:40:42.081Z,16.50
2018-09-21T13:42:46.380Z,16.50
2018-09-21T13:44:51.303Z,16.60
2018-09-21T13:46:56.650Z,16.50
2018-09-21T13:49:02.438Z,16.60
2018-09-21T13:51:07.053Z,16.50
2018-09-21T13:53:11.353Z,16.50
2018-09-21T13:55:15.299Z,16.60
2018-09-21T13:57:20.021Z,16.60
2018-09-21T13:59:25.860Z,16.70
2018-09-21T14:01:31.546Z,16.80
2018-09-21T14:03:35.565Z,17.00
2018-09-21T14:05:41.553Z,17.00
2018-09-21T14:07:45.712Z,17.10
2018-09-21T14:09:51.037Z,17.10
2018-09-21T14:11:56.175Z,17.20
2018-09-21T14:14:00.126Z,17.30
2018-09-21T14:16:04.962Z,17.20
2018-09-21T14:18:10.434Z,17.10
2018-09-21T14:20:15.623Z,17.20
2018-09-21T14:22:19.693Z,17.30
2018-09-21T14:24:26.999Z,17.30
2018-09-21T14:26:31.928Z,17.30
2018-09-21T14:28:38.565Z,17.30
2018-09-21T14:30:43.028Z,17.30
2018-09-21T14:32:47.003Z,17.30
2018-09-21T14:34:51.313Z,17.30
2018-09-21T14:36:55.568Z,17.20
2018-09-21T14:39:00.586Z,17.30
2018-09-21T14:41:05.325Z,17.40
2018-09-21T14:43:11.411Z,17.30
2018-09-21T14:45:16.206Z,17.30
2018-09-21T14:47:20.231Z,17.30
2018-09-21T14:49:25.827Z,17.30
2018-09-21T14:51:29.873Z,17.30
2018-09-21T14:53:34.334Z,17.30
2018-09-21T14:55:40.541Z,17.30
2018-09-21T14:57:46.467Z,17.40
2018-09-21T15:02:13.845Z,17.70
2018-09-21T15:04:17.847Z,17.80
2018-09-21T15:06:22.765Z,17.80
2018-09-21T15:08:29.207Z,17.90
2018-09-21T15:10:33.236Z,18.00
2018-09-21T15:12:37.283Z,18.10
2018-09-21T15:14:43.004Z,18.10
2018-09-21T15:16:47.489Z,18.30
2018-09-21T15:18:53.716Z,18.30
2018-09-21T15:21:01.480Z,18.40
2018-09-21T15:23:05.832Z,18.80
2018-09-21T15:25:10.755Z,19.30
2018-09-21T15:27:15.345Z,20.10
2018-09-21T15:29:20.045Z,20.80
2018-09-21T15:31:24.052Z,21.00
2018-09-21T15:33:31.243Z,20.90
2018-09-21T15:35:35.186Z,20.60
2018-09-21T15:37:41.482Z,20.50
2018-09-21T15:39:46.292Z,20.90
2018-09-21T15:41:50.352Z,21.40
2018-09-21T15:43:54.969Z,21.60
2018-09-21T15:46:00.278Z,21.40
2018-09-21T15:48:11.182Z,21.30
2018-09-21T15:50:18.261Z,20.80
2018-09-21T15:52:22.280Z,20.40
2018-09-21T15:54:26.248Z,20.20
2018-09-21T15:56:30.893Z,19.90
2018-09-21T15:58:37.204Z,19.60
2018-09-21T16:00:42.674Z,19.40
2018-09-21T16:02:48.133Z,19.30
2018-09-21T16:04:52.417Z,19.30
2018-09-21T16:06:57.007Z,19.30
2018-09-21T16:09:04.553Z,19.20
2018-09-21T16:11:10.540Z,19.30
2018-09-21T16:13:17.304Z,19.40
2018-09-21T16:15:29.231Z,19.40
2018-09-21T16:17:33.205Z,19.30
2018-09-21T16:19:38.770Z,19.30
2018-09-21T16:21:45.173Z,19.50
2018-09-21T16:24:05.341Z,19.50
2018-09-21T16:26:10.529Z,19.40
2018-09-21T16:28:17.007Z,19.40
2018-09-21T16:30:22.977Z,19.40
2018-09-21T16:32:26.937Z,19.40
2018-09-21T16:34:33.490Z,19.50
2018-09-21T16:36:38.324Z,19.40
2018-09-21T16:38:43.339Z,19.30
2018-09-21T16:40:48.414Z,19.20
2018-09-21T16:42:52.566Z,19.20
2018-09-21T16:44:57.546Z,19.10
2018-09-21T16:47:06.088Z,18.70
2018-09-21T16:49:10.348Z,18.50
2018-09-21T16:51:16.256Z,18.60
2018-09-21T16:53:20.172Z,18.60
2018-09-21T16:55:26.485Z,18.60
2018-09-21T16:57:31.546Z,18.60
2018-09-21T16:59:39.747Z,18.50
2018-09-21T17:01:45.691Z,18.50
2018-09-21T17:03:49.687Z,18.40
2018-09-21T17:05:57.229Z,18.30
2018-09-21T17:08:01.227Z,18.30
2018-09-21T17:10:05.262Z,18.30
2018-09-21T17:12:09.509Z,18.40
2018-09-21T17:14:13.870Z,18.30
2018-09-21T17:16:17.968Z,18.30
2018-09-21T17:18:24.158Z,18.30
2018-09-21T17:20:28.820Z,18.20
2018-09-21T17:22:34.451Z,18.20
2018-09-21T17:24:40.426Z,18.10
2018-09-21T17:26:45.319Z,18.00
2018-09-21T17:28:51.372Z,17.90
2018-09-21T17:30:56.268Z,17.80
2018-09-21T17:33:05.778Z,17.90
2018-09-21T17:35:17.038Z,17.80
2018-09-21T17:37:23.570Z,17.80
2018-09-21T17:39:30.031Z,17.70
2018-09-21T17:41:37.781Z,17.60
2018-09-21T17:43:42.089Z,17.60
2018-09-21T17:45:46.848Z,17.70
2018-09-21T17:47:50.925Z,17.40
2018-09-21T17:49:55.400Z,17.40
2018-09-21T17:51:59.460Z,17.40
2018-09-21T17:54:07.427Z,17.30
2018-09-21T17:56:11.776Z,17.40
2018-09-21T17:58:18.757Z,17.20
2018-09-21T18:00:25.398Z,17.30
2018-09-21T18:02:29.846Z,17.20
2018-09-21T18:04:38.987Z,17.30
2018-09-21T18:06:43.002Z,17.20
2018-09-21T18:08:49.291Z,17.10
2018-09-21T18:10:55.128Z,17.10
2018-09-21T18:12:59.073Z,17.00
2018-09-21T18:15:04.305Z,16.90
2018-09-21T18:17:15.426Z,16.80
2018-09-21T18:19:20.179Z,16.80
2018-09-21T18:21:26.305Z,16.80
2018-09-21T18:23:30.955Z,16.80
2018-09-21T18:25:37.885Z,16.90
2018-09-21T18:27:45.263Z,16.90
2018-09-21T18:29:49.612Z,16.80
2018-09-21T18:31:53.697Z,16.90
2018-09-21T18:34:00.572Z,16.90
2018-09-21T18:36:05.717Z,16.80
2018-09-21T18:38:11.570Z,16.80
2018-09-21T18:40:16.684Z,16.80
2018-09-21T18:42:23.241Z,16.70
2018-09-21T18:44:29.866Z,16.80
2018-09-21T18:46:34.774Z,16.80
2018-09-21T18:48:38.845Z,16.80
2018-09-21T18:50:45.065Z,16.70
2018-09-21T18:52:49.369Z,16.70
2018-09-21T18:54:53.333Z,16.70
2018-09-21T18:56:59.080Z,16.70
2018-09-21T18:59:03.389Z,16.60
2018-09-21T19:01:08.441Z,16.50
2018-09-21T19:03:13.454Z,16.50
2018-09-21T19:05:17.708Z,16.50
2018-09-21T19:07:30.104Z,16.40
2018-09-21T19:09:37.080Z,16.40
2018-09-21T19:11:43.524Z,16.40
2018-09-21T19:13:49.331Z,16.30
2018-09-21T19:15:55.229Z,16.20
2018-09-21T19:18:00.657Z,16.20
2018-09-21T19:20:13.549Z,16.20
2018-09-21T19:22:21.726Z,16.10
2018-09-21T19:24:31.427Z,16.10
2018-09-21T19:26:36.290Z,16.00
2018-09-21T19:28:40.824Z,16.00
2018-09-21T19:30:45.201Z,16.00
2018-09-21T19:32:52.024Z,16.00
2018-09-21T19:34:56.730Z,15.90
2018-09-21T19:37:01.606Z,15.90
2018-09-21T19:39:09.412Z,16.00
2018-09-21T19:41:16.478Z,15.90
2018-09-21T19:43:22.409Z,15.90
2018-09-21T19:45:43.445Z,15.90
2018-09-21T19:47:49.021Z,15.90
2018-09-21T19:49:55.329Z,16.00
2018-09-21T19:52:01.992Z,16.00
2018-09-21T19:54:10.492Z,15.90
2018-09-21T19:56:16.322Z,16.00
2018-09-21T19:58:21.407Z,15.90
2018-09-21T20:00:26.428Z,15.90
2018-09-21T20:02:31.715Z,15.90
2018-09-21T20:04:37.288Z,15.90
2018-09-21T20:06:42.482Z,15.90
2018-09-21T20:08:50.372Z,15.80
2018-09-21T20:10:54.726Z,15.90
2018-09-21T20:12:58.967Z,15.90
2018-09-21T20:15:05.031Z,15.90
2018-09-21T20:17:09.291Z,15.90
2018-09-21T20:19:13.618Z,15.80
2018-09-21T20:21:24.962Z,15.80
2018-09-21T20:23:32.653Z,15.80
2018-09-21T20:25:41.554Z,15.80
2018-09-21T20:27:46.349Z,15.90
2018-09-21T20:29:50.673Z,15.90
2018-09-21T20:32:02.392Z,16.00
2018-09-21T20:34:08.379Z,16.10
2018-09-21T20:36:14.709Z,16.10
2018-09-21T20:38:19.326Z,15.90
2018-09-21T20:40:24.050Z,16.00
2018-09-21T20:42:28.668Z,16.00
2018-09-21T20:44:35.450Z,16.00
2018-09-21T20:46:40.871Z,15.90
2018-09-21T20:48:47.963Z,15.90
2018-09-21T20:50:54.242Z,16.00
2018-09-21T20:53:05.662Z,16.00
2018-09-21T20:55:15.100Z,16.10
2018-09-21T20:57:21.367Z,16.10
2018-09-21T20:59:25.610Z,16.00
2018-09-21T21:01:32.636Z,16.00
2018-09-21T21:03:36.761Z,16.00
2018-09-21T21:05:41.553Z,16.00
2018-09-21T21:07:47.741Z,16.00
2018-09-21T21:09:52.489Z,16.10
2018-09-21T21:11:59.074Z,16.10
2018-09-21T21:14:03.995Z,16.00
2018-09-21T21:16:08.735Z,16.10
2018-09-21T21:18:14.370Z,16.10
2018-09-21T21:20:20.792Z,16.10
2018-09-21T21:22:25.623Z,16.10
2018-09-21T21:24:31.044Z,16.10
2018-09-21T21:26:36.080Z,16.20
2018-09-21T21:28:40.861Z,16.10
2018-09-21T21:30:46.260Z,16.00
2018-09-21T21:32:50.237Z,16.00
2018-09-21T21:34:55.932Z,16.00
2018-09-21T21:37:00.331Z,15.90
2018-09-21T21:39:08.812Z,15.90
2018-09-21T21:41:14.212Z,15.80
2018-09-21T21:43:20.989Z,15.70
2018-09-21T21:45:25.926Z,15.70
2018-09-21T21:47:30.856Z,15.60
2018-09-21T21:49:37.759Z,15.70
2018-09-21T21:51:44.311Z,15.80
2018-09-21T21:53:48.293Z,15.80
2018-09-21T21:55:53.405Z,15.80
2018-09-21T21:58:01.078Z,15.70
2018-09-21T22:00:06.341Z,15.70
2018-09-21T22:02:12.232Z,15.60
2018-09-21T22:04:17.729Z,15.60
2018-09-21T22:06:21.701Z,15.50
2018-09-21T22:08:26.369Z,15.50
2018-09-21T22:10:30.749Z,15.50
2018-09-21T22:12:41.017Z,15.30
2018-09-21T22:14:45.507Z,15.50
2018-09-21T22:16:50.720Z,15.50
2018-09-21T22:18:55.731Z,15.50
2018-09-21T22:21:00.406Z,15.60
2018-09-21T22:23:04.615Z,15.60
2018-09-21T22:25:09.133Z,15.60
2018-09-21T22:27:13.073Z,15.60
2018-09-21T22:29:19.386Z,15.50
2018-09-21T22:31:25.322Z,15.60
2018-09-21T22:33:30.522Z,15.50
2018-09-21T22:35:35.328Z,15.60
2018-09-21T22:37:41.990Z,15.50
2018-09-21T22:39:47.690Z,15.50
2018-09-21T22:41:54.639Z,15.50
2018-09-21T22:43:58.603Z,15.50
2018-09-21T22:46:03.264Z,15.60
2018-09-21T22:48:07.616Z,15.50
2018-09-21T22:50:12.913Z,15.50
2018-09-21T22:52:16.815Z,15.40
2018-09-21T22:54:21.218Z,15.50
2018-09-21T22:56:25.183Z,15.50
2018-09-21T22:58:29.351Z,15.40
2018-09-21T23:00:40.428Z,15.30
2018-09-21T23:02:44.421Z,15.30
2018-09-21T23:04:48.946Z,15.10
2018-09-21T23:06:54.009Z,15.10
2018-09-21T23:08:59.000Z,15.10
2018-09-21T23:11:02.986Z,15.10
2018-09-21T23:13:08.284Z,15.20
2018-09-21T23:15:15.428Z,15.10
2018-09-21T23:17:19.540Z,15.10
2018-09-21T23:19:24.761Z,15.10
2018-09-21T23:21:30.163Z,15.10
2018-09-21T23:23:37.250Z,15.00
2018-09-21T23:25:41.196Z,15.00
2018-09-21T23:27:46.945Z,14.90
2018-09-21T23:29:50.880Z,14.90
2018-09-21T23:31:55.651Z,14.90
2018-09-21T23:34:01.413Z,14.90
2018-09-21T23:36:07.771Z,14.80
2018-09-21T23:38:12.935Z,14.80
2018-09-21T23:40:16.920Z,14.80
2018-09-21T23:42:21.658Z,14.70
2018-09-21T23:44:28.449Z,14.70
2018-09-21T23:46:32.509Z,14.70
2018-09-21T23:48:36.573Z,14.70
2018-09-21T23:50:40.540Z,14.70
2018-09-21T23:52:44.562Z,14.80
2018-09-21T23:54:55.076Z,14.70
2018-09-21T23:57:00.427Z,14.70
2018-09-21T23:59:05.013Z,14.70
